This is the latest recevied weather packets stored in our database for station/object N8TWM-13. If no packets are shown the sender has not sent any weather packets the latest 10 day(s).
| Time | Temp. | Humidity | Pressure | Rain* | Wind** | Luminosity | Snow |
|---|---|---|---|---|---|---|---|
| 1777414997 | 18.89° C | 71% | 1013.2 hPa | 0 mm | - | 84 W/m² | - |
| 1777414692 | 19.44° C | 70% | 1013.1 hPa | 0 mm | - | 217 W/m² | - |
| 1777414388 | 18.89° C | 70% | 1013 hPa | 0 mm | - | 232 W/m² | - |
| 1777414088 | 18.89° C | 71% | 1013.1 hPa | 0 mm | - | 92 W/m² | - |
| 1777413783 | 19.44° C | 69% | 1013.1 hPa | 0 mm | - | 143 W/m² | - |
| 1777413478 | 19.44° C | 70% | 1013.1 hPa | 0 mm | - | 101 W/m² | - |
| 1777413175 | 20.56° C | 67% | 1012.9 hPa | 0 mm | - | 104 W/m² | - |
| 1777412875 | 20° C | 68% | 1013.1 hPa | 0 mm | - | 336 W/m² | - |
| 1777412569 | 20° C | 68% | 1013 hPa | 0 mm | - | 121 W/m² | - |
| 1777412267 | 20° C | 69% | 1012.8 hPa | 0 mm | - | 296 W/m² | - |
| 1777411963 | 20° C | 69% | 1012.9 hPa | 0 mm | - | 189 W/m² | - |
| 1777411662 | 20° C | 68% | 1012.9 hPa | 0 mm | - | 389 W/m² | - |
| 1777411357 | 20.56° C | 68% | 1013 hPa | 0 mm | - | 427 W/m² | - |
| 1777411056 | 20.56° C | 68% | 1012.8 hPa | 0 mm | - | 286 W/m² | - |
| 1777410752 | 20.56° C | 65% | 1012.9 hPa | 0 mm | - | 222 W/m² | - |
| 1777410451 | 20.56° C | 67% | 1012.8 hPa | 0 mm | - | 459 W/m² | - |
| 1777410150 | 20.56° C | 68% | 1012.8 hPa | 0 mm | - | 436 W/m² | - |
| 1777409845 | 20.56° C | 69% | 1012.8 hPa | 0 mm | - | 394 W/m² | - |
| 1777409541 | 20.56° C | 69% | 1012.8 hPa | 0 mm | - | 518 W/m² | - |
| 1777409237 | 20.56° C | 68% | 1012.7 hPa | 0 mm | - | 200 W/m² | - |
| 1777408933 | 21.11° C | 68% | 1012.6 hPa | 0 mm | - | 480 W/m² | - |
| 1777408630 | 21.11° C | 66% | 1012.7 hPa | 0 mm | - | 500 W/m² | - |
| 1777408325 | 21.11° C | 66% | 1012.8 hPa | 0 mm | - | 462 W/m² | - |
| 1777408024 | 20.56° C | 67% | 1012.8 hPa | 0 mm | - | 563 W/m² | - |
| 1777407722 | 21.67° C | 65% | 1012.6 hPa | 0 mm | - | 556 W/m² | - |
* Rain latest hour (hover to see other rain measurements)
** Current wind speed in m/s (hover to see current wind gust speed)